sensor_id;sensor_type;location;lat;lon;timestamp;temperature;humidity
1329;DHT22;658;48.820;9.354;2023-08-20T00:00:22;25.40;81.60
1329;DHT22;658;48.820;9.354;2023-08-20T00:04:25;25.40;81.30
1329;DHT22;658;48.820;9.354;2023-08-20T00:08:26;25.40;81.30
1329;DHT22;658;48.820;9.354;2023-08-20T00:12:27;25.40;81.70
1329;DHT22;658;48.820;9.354;2023-08-20T00:16:28;25.40;81.90
1329;DHT22;658;48.820;9.354;2023-08-20T00:20:29;25.40;82.10
1329;DHT22;658;48.820;9.354;2023-08-20T00:24:30;25.40;82.00
1329;DHT22;658;48.820;9.354;2023-08-20T00:28:30;25.40;81.90
1329;DHT22;658;48.820;9.354;2023-08-20T00:32:35;25.40;82.00
1329;DHT22;658;48.820;9.354;2023-08-20T00:36:36;25.40;82.10
1329;DHT22;658;48.820;9.354;2023-08-20T00:40:37;25.40;82.30
1329;DHT22;658;48.820;9.354;2023-08-20T00:44:37;25.30;82.40
1329;DHT22;658;48.820;9.354;2023-08-20T00:48:38;25.30;82.50
1329;DHT22;658;48.820;9.354;2023-08-20T00:52:38;25.30;82.50
1329;DHT22;658;48.820;9.354;2023-08-20T00:56:41;25.30;82.60
1329;DHT22;658;48.820;9.354;2023-08-20T01:00:42;25.30;82.60
1329;DHT22;658;48.820;9.354;2023-08-20T01:04:47;25.30;82.40
1329;DHT22;658;48.820;9.354;2023-08-20T01:08:53;25.30;82.40
1329;DHT22;658;48.820;9.354;2023-08-20T01:12:57;25.30;82.60
1329;DHT22;658;48.820;9.354;2023-08-20T01:16:58;25.30;82.50
1329;DHT22;658;48.820;9.354;2023-08-20T01:21:02;25.30;82.40
1329;DHT22;658;48.820;9.354;2023-08-20T01:29:11;25.20;82.20
1329;DHT22;658;48.820;9.354;2023-08-20T01:33:13;25.20;82.00
1329;DHT22;658;48.820;9.354;2023-08-20T01:37:14;25.20;81.90
1329;DHT22;658;48.820;9.354;2023-08-20T01:41:14;25.20;82.10
1329;DHT22;658;48.820;9.354;2023-08-20T01:45:15;25.20;82.70
1329;DHT22;658;48.820;9.354;2023-08-20T01:49:17;25.20;82.60
1329;DHT22;658;48.820;9.354;2023-08-20T01:53:18;25.10;82.60
1329;DHT22;658;48.820;9.354;2023-08-20T01:57:19;25.10;82.60
1329;DHT22;658;48.820;9.354;2023-08-20T02:01:19;25.10;82.60
1329;DHT22;658;48.820;9.354;2023-08-20T02:05:22;25.10;82.50
1329;DHT22;658;48.820;9.354;2023-08-20T02:09:23;25.10;82.50
1329;DHT22;658;48.820;9.354;2023-08-20T02:13:24;25.10;82.40
1329;DHT22;658;48.820;9.354;2023-08-20T02:17:25;25.10;82.50
1329;DHT22;658;48.820;9.354;2023-08-20T02:21:25;25.10;82.50
1329;DHT22;658;48.820;9.354;2023-08-20T02:25:26;25.10;82.60
1329;DHT22;658;48.820;9.354;2023-08-20T02:29:27;25.00;82.60
1329;DHT22;658;48.820;9.354;2023-08-20T02:33:27;25.00;82.70
1329;DHT22;658;48.820;9.354;2023-08-20T02:37:30;25.00;82.60
1329;DHT22;658;48.820;9.354;2023-08-20T02:41:30;25.00;82.50
1329;DHT22;658;48.820;9.354;2023-08-20T02:45:31;25.00;82.50
1329;DHT22;658;48.820;9.354;2023-08-20T02:49:34;25.00;82.30
1329;DHT22;658;48.820;9.354;2023-08-20T02:53:34;25.00;82.40
1329;DHT22;658;48.820;9.354;2023-08-20T02:57:35;25.00;82.40
1329;DHT22;658;48.820;9.354;2023-08-20T03:01:36;25.00;82.60
1329;DHT22;658;48.820;9.354;2023-08-20T03:05:36;24.90;82.60
1329;DHT22;658;48.820;9.354;2023-08-20T03:09:39;24.90;82.70
1329;DHT22;658;48.820;9.354;2023-08-20T03:13:39;25.00;83.00
1329;DHT22;658;48.820;9.354;2023-08-20T03:17:44;24.90;83.10
1329;DHT22;658;48.820;9.354;2023-08-20T03:21:45;24.90;82.90
1329;DHT22;658;48.820;9.354;2023-08-20T03:25:45;24.90;82.90
1329;DHT22;658;48.820;9.354;2023-08-20T03:29:46;24.80;83.30
1329;DHT22;658;48.820;9.354;2023-08-20T03:33:48;24.80;83.50
1329;DHT22;658;48.820;9.354;2023-08-20T03:37:48;24.80;83.30
1329;DHT22;658;48.820;9.354;2023-08-20T03:41:50;24.80;83.20
1329;DHT22;658;48.820;9.354;2023-08-20T03:45:53;24.80;83.20
1329;DHT22;658;48.820;9.354;2023-08-20T03:49:54;24.80;83.10
1329;DHT22;658;48.820;9.354;2023-08-20T03:53:56;24.80;83.10
1329;DHT22;658;48.820;9.354;2023-08-20T03:57:57;24.80;83.10
1329;DHT22;658;48.820;9.354;2023-08-20T04:01:58;24.70;83.10
1329;DHT22;658;48.820;9.354;2023-08-20T04:06:01;24.70;82.70
1329;DHT22;658;48.820;9.354;2023-08-20T04:10:01;24.60;83.20
1329;DHT22;658;48.820;9.354;2023-08-20T04:14:02;24.60;83.90
1329;DHT22;658;48.820;9.354;2023-08-20T04:18:03;24.50;84.20
1329;DHT22;658;48.820;9.354;2023-08-20T04:22:04;24.50;84.90
1329;DHT22;658;48.820;9.354;2023-08-20T04:26:04;24.40;85.20
1329;DHT22;658;48.820;9.354;2023-08-20T04:30:05;24.40;85.40
1329;DHT22;658;48.820;9.354;2023-08-20T04:34:06;24.40;85.20
1329;DHT22;658;48.820;9.354;2023-08-20T04:38:07;24.40;84.90
1329;DHT22;658;48.820;9.354;2023-08-20T04:42:08;24.50;84.70
1329;DHT22;658;48.820;9.354;2023-08-20T04:46:08;24.40;84.90
1329;DHT22;658;48.820;9.354;2023-08-20T04:50:09;24.40;85.20
1329;DHT22;658;48.820;9.354;2023-08-20T04:54:12;24.40;85.20
1329;DHT22;658;48.820;9.354;2023-08-20T04:58:13;24.30;85.10
1329;DHT22;658;48.820;9.354;2023-08-20T05:02:13;24.40;85.30
1329;DHT22;658;48.820;9.354;2023-08-20T05:06:14;24.30;85.10
1329;DHT22;658;48.820;9.354;2023-08-20T05:10:14;24.40;85.10
1329;DHT22;658;48.820;9.354;2023-08-20T05:14:15;24.40;84.90
1329;DHT22;658;48.820;9.354;2023-08-20T05:18:16;24.50;84.80
1329;DHT22;658;48.820;9.354;2023-08-20T05:22:16;24.50;85.20
1329;DHT22;658;48.820;9.354;2023-08-20T05:26:17;24.50;85.10
1329;DHT22;658;48.820;9.354;2023-08-20T05:30:17;24.50;84.90
1329;DHT22;658;48.820;9.354;2023-08-20T05:34:18;24.50;84.90
1329;DHT22;658;48.820;9.354;2023-08-20T05:38:18;24.50;85.70
1329;DHT22;658;48.820;9.354;2023-08-20T05:42:19;24.50;86.10
1329;DHT22;658;48.820;9.354;2023-08-20T05:46:19;24.50;86.30
1329;DHT22;658;48.820;9.354;2023-08-20T05:50:20;24.50;86.50
1329;DHT22;658;48.820;9.354;2023-08-20T05:54:21;24.50;86.50
1329;DHT22;658;48.820;9.354;2023-08-20T05:58:21;24.50;86.30
1329;DHT22;658;48.820;9.354;2023-08-20T06:02:24;24.50;86.80
1329;DHT22;658;48.820;9.354;2023-08-20T06:06:26;24.50;87.20
1329;DHT22;658;48.820;9.354;2023-08-20T06:10:27;24.70;86.30
1329;DHT22;658;48.820;9.354;2023-08-20T06:14:27;24.80;86.60
1329;DHT22;658;48.820;9.354;2023-08-20T06:18:30;24.80;85.80
1329;DHT22;658;48.820;9.354;2023-08-20T06:22:31;24.90;86.00
1329;DHT22;658;48.820;9.354;2023-08-20T06:26:32;25.00;85.80
1329;DHT22;658;48.820;9.354;2023-08-20T06:30:32;25.00;85.50
1329;DHT22;658;48.820;9.354;2023-08-20T06:34:36;25.10;84.90
1329;DHT22;658;48.820;9.354;2023-08-20T06:38:36;25.20;85.20
1329;DHT22;658;48.820;9.354;2023-08-20T06:42:37;25.30;85.00
1329;DHT22;658;48.820;9.354;2023-08-20T06:46:40;25.30;84.00
1329;DHT22;658;48.820;9.354;2023-08-20T06:50:42;25.30;84.10
1329;DHT22;658;48.820;9.354;2023-08-20T06:54:44;25.40;83.60
1329;DHT22;658;48.820;9.354;2023-08-20T06:58:48;25.40;83.00
1329;DHT22;658;48.820;9.354;2023-08-20T07:02:49;25.40;82.50
1329;DHT22;658;48.820;9.354;2023-08-20T07:06:50;25.50;82.20
1329;DHT22;658;48.820;9.354;2023-08-20T07:10:51;25.50;82.00
1329;DHT22;658;48.820;9.354;2023-08-20T07:14:52;25.50;81.80
1329;DHT22;658;48.820;9.354;2023-08-20T07:18:52;25.50;81.60
1329;DHT22;658;48.820;9.354;2023-08-20T07:22:53;25.50;81.40
1329;DHT22;658;48.820;9.354;2023-08-20T07:26:54;25.60;81.30
1329;DHT22;658;48.820;9.354;2023-08-20T07:30:59;25.50;81.20
1329;DHT22;658;48.820;9.354;2023-08-20T07:35:00;25.60;81.20
1329;DHT22;658;48.820;9.354;2023-08-20T07:39:00;25.60;81.10
1329;DHT22;658;48.820;9.354;2023-08-20T07:43:01;25.60;80.90
1329;DHT22;658;48.820;9.354;2023-08-20T07:47:02;25.60;81.00
1329;DHT22;658;48.820;9.354;2023-08-20T07:51:06;25.60;80.90
1329;DHT22;658;48.820;9.354;2023-08-20T07:55:07;25.60;80.90
1329;DHT22;658;48.820;9.354;2023-08-20T07:59:07;25.60;80.80
1329;DHT22;658;48.820;9.354;2023-08-20T08:03:08;25.60;80.90
1329;DHT22;658;48.820;9.354;2023-08-20T08:07:10;25.60;80.90
1329;DHT22;658;48.820;9.354;2023-08-20T08:11:11;25.60;80.90
1329;DHT22;658;48.820;9.354;2023-08-20T08:15:14;25.60;80.90
1329;DHT22;658;48.820;9.354;2023-08-20T08:19:16;25.60;81.20
1329;DHT22;658;48.820;9.354;2023-08-20T08:23:16;25.70;80.70
1329;DHT22;658;48.820;9.354;2023-08-20T08:27:17;25.70;80.40
1329;DHT22;658;48.820;9.354;2023-08-20T08:31:17;25.80;80.40
1329;DHT22;658;48.820;9.354;2023-08-20T08:35:19;25.80;80.60
1329;DHT22;658;48.820;9.354;2023-08-20T08:39:23;25.80;80.50
1329;DHT22;658;48.820;9.354;2023-08-20T08:43:24;25.90;80.50
1329;DHT22;658;48.820;9.354;2023-08-20T08:47:28;25.90;80.30
1329;DHT22;658;48.820;9.354;2023-08-20T08:51:30;25.90;80.00
1329;DHT22;658;48.820;9.354;2023-08-20T08:55:31;25.90;79.80
1329;DHT22;658;48.820;9.354;2023-08-20T08:59:32;26.00;79.80
1329;DHT22;658;48.820;9.354;2023-08-20T09:03:33;26.00;79.50
1329;DHT22;658;48.820;9.354;2023-08-20T09:07:33;26.00;79.60
1329;DHT22;658;48.820;9.354;2023-08-20T09:11:36;26.10;79.50
1329;DHT22;658;48.820;9.354;2023-08-20T09:15:37;26.10;79.60
1329;DHT22;658;48.820;9.354;2023-08-20T09:19:37;26.20;79.50
1329;DHT22;658;48.820;9.354;2023-08-20T09:23:38;26.20;79.50
1329;DHT22;658;48.820;9.354;2023-08-20T09:27:39;26.20;79.30
1329;DHT22;658;48.820;9.354;2023-08-20T09:31:43;26.20;79.30
1329;DHT22;658;48.820;9.354;2023-08-20T09:35:52;26.20;79.30
1329;DHT22;658;48.820;9.354;2023-08-20T09:39:54;26.30;79.10
1329;DHT22;658;48.820;9.354;2023-08-20T09:43:57;26.30;79.10
1329;DHT22;658;48.820;9.354;2023-08-20T09:47:58;26.30;79.00
1329;DHT22;658;48.820;9.354;2023-08-20T09:52:01;26.30;79.20
1329;DHT22;658;48.820;9.354;2023-08-20T09:56:14;26.30;79.10
1329;DHT22;658;48.820;9.354;2023-08-20T10:00:18;26.30;78.80
1329;DHT22;658;48.820;9.354;2023-08-20T10:04:20;26.30;78.90
1329;DHT22;658;48.820;9.354;2023-08-20T10:08:21;26.30;79.00
1329;DHT22;658;48.820;9.354;2023-08-20T10:12:23;26.30;78.90
1329;DHT22;658;48.820;9.354;2023-08-20T10:16:24;26.30;79.00
1329;DHT22;658;48.820;9.354;2023-08-20T10:20:29;26.30;78.90
1329;DHT22;658;48.820;9.354;2023-08-20T10:24:52;26.30;78.70
1329;DHT22;658;48.820;9.354;2023-08-20T10:33:34;26.30;78.70
1329;DHT22;658;48.820;9.354;2023-08-20T10:37:37;26.30;78.60
1329;DHT22;658;48.820;9.354;2023-08-20T10:41:40;26.30;78.60
1329;DHT22;658;48.820;9.354;2023-08-20T10:45:44;26.30;78.50
1329;DHT22;658;48.820;9.354;2023-08-20T10:49:44;26.30;78.50
1329;DHT22;658;48.820;9.354;2023-08-20T10:58:04;26.40;78.50
1329;DHT22;658;48.820;9.354;2023-08-20T11:02:10;26.40;79.20
1329;DHT22;658;48.820;9.354;2023-08-20T11:06:14;26.40;80.10
1329;DHT22;658;48.820;9.354;2023-08-20T11:10:15;26.40;78.90
1329;DHT22;658;48.820;9.354;2023-08-20T11:14:19;26.50;79.00
1329;DHT22;658;48.820;9.354;2023-08-20T11:18:22;26.50;79.00
1329;DHT22;658;48.820;9.354;2023-08-20T11:22:25;26.50;78.70
1329;DHT22;658;48.820;9.354;2023-08-20T11:26:26;26.50;78.60
1329;DHT22;658;48.820;9.354;2023-08-20T11:30:29;26.50;78.60
1329;DHT22;658;48.820;9.354;2023-08-20T11:34:31;26.50;78.50
1329;DHT22;658;48.820;9.354;2023-08-20T11:38:32;26.50;78.20
1329;DHT22;658;48.820;9.354;2023-08-20T11:42:33;26.50;78.30
1329;DHT22;658;48.820;9.354;2023-08-20T11:46:42;26.50;78.20
1329;DHT22;658;48.820;9.354;2023-08-20T11:50:44;26.50;78.10
1329;DHT22;658;48.820;9.354;2023-08-20T11:54:44;26.50;77.90
1329;DHT22;658;48.820;9.354;2023-08-20T11:58:52;26.60;78.00
1329;DHT22;658;48.820;9.354;2023-08-20T12:02:57;26.60;77.80
1329;DHT22;658;48.820;9.354;2023-08-20T12:07:08;26.50;77.60
1329;DHT22;658;48.820;9.354;2023-08-20T12:11:09;26.60;77.60
1329;DHT22;658;48.820;9.354;2023-08-20T12:15:10;26.60;77.40
1329;DHT22;658;48.820;9.354;2023-08-20T12:19:14;26.60;77.30
1329;DHT22;658;48.820;9.354;2023-08-20T12:23:14;26.60;77.40
1329;DHT22;658;48.820;9.354;2023-08-20T12:27:15;26.60;77.10
1329;DHT22;658;48.820;9.354;2023-08-20T12:31:15;26.60;77.00
1329;DHT22;658;48.820;9.354;2023-08-20T12:35:16;26.60;76.90
1329;DHT22;658;48.820;9.354;2023-08-20T12:39:19;26.60;76.80
1329;DHT22;658;48.820;9.354;2023-08-20T12:43:20;26.60;76.80
1329;DHT22;658;48.820;9.354;2023-08-20T12:47:20;26.70;76.70
1329;DHT22;658;48.820;9.354;2023-08-20T12:51:23;26.70;76.50
1329;DHT22;658;48.820;9.354;2023-08-20T12:55:24;26.80;76.60
1329;DHT22;658;48.820;9.354;2023-08-20T12:59:25;26.80;76.50
1329;DHT22;658;48.820;9.354;2023-08-20T13:03:25;26.80;76.40
1329;DHT22;658;48.820;9.354;2023-08-20T13:07:28;26.80;76.40
1329;DHT22;658;48.820;9.354;2023-08-20T13:11:29;26.80;76.40
1329;DHT22;658;48.820;9.354;2023-08-20T13:15:31;26.80;76.40
1329;DHT22;658;48.820;9.354;2023-08-20T13:19:32;26.90;76.40
1329;DHT22;658;48.820;9.354;2023-08-20T13:23:32;26.90;76.40
1329;DHT22;658;48.820;9.354;2023-08-20T13:27:33;26.80;76.20
1329;DHT22;658;48.820;9.354;2023-08-20T13:31:33;26.80;76.20
1329;DHT22;658;48.820;9.354;2023-08-20T13:35:36;26.90;76.30
1329;DHT22;658;48.820;9.354;2023-08-20T13:39:36;26.90;76.30
1329;DHT22;658;48.820;9.354;2023-08-20T13:43:37;26.90;76.20
1329;DHT22;658;48.820;9.354;2023-08-20T13:47:38;26.90;76.10
1329;DHT22;658;48.820;9.354;2023-08-20T13:51:38;26.90;76.30
1329;DHT22;658;48.820;9.354;2023-08-20T13:55:41;26.90;76.10
1329;DHT22;658;48.820;9.354;2023-08-20T13:59:42;26.90;76.50
1329;DHT22;658;48.820;9.354;2023-08-20T14:03:42;27.00;76.20
1329;DHT22;658;48.820;9.354;2023-08-20T14:07:43;27.00;76.10
1329;DHT22;658;48.820;9.354;2023-08-20T14:11:44;27.00;76.30
1329;DHT22;658;48.820;9.354;2023-08-20T14:15:45;27.00;75.80
1329;DHT22;658;48.820;9.354;2023-08-20T14:19:45;27.10;75.70
1329;DHT22;658;48.820;9.354;2023-08-20T14:23:46;27.10;75.50
1329;DHT22;658;48.820;9.354;2023-08-20T14:27:46;27.20;75.40
1329;DHT22;658;48.820;9.354;2023-08-20T14:31:48;27.20;75.20
1329;DHT22;658;48.820;9.354;2023-08-20T14:35:49;27.20;75.00
1329;DHT22;658;48.820;9.354;2023-08-20T14:39:50;27.20;74.80
1329;DHT22;658;48.820;9.354;2023-08-20T14:43:53;27.20;75.30
1329;DHT22;658;48.820;9.354;2023-08-20T14:47:53;27.30;74.70
1329;DHT22;658;48.820;9.354;2023-08-20T14:51:54;27.30;74.60
1329;DHT22;658;48.820;9.354;2023-08-20T14:55:55;27.30;74.40
1329;DHT22;658;48.820;9.354;2023-08-20T14:59:56;27.30;74.70
1329;DHT22;658;48.820;9.354;2023-08-20T15:03:57;27.40;74.50
1329;DHT22;658;48.820;9.354;2023-08-20T15:07:57;27.40;74.20
1329;DHT22;658;48.820;9.354;2023-08-20T15:11:58;27.50;74.40
1329;DHT22;658;48.820;9.354;2023-08-20T15:15:59;27.50;74.60
1329;DHT22;658;48.820;9.354;2023-08-20T15:20:00;27.50;74.10
1329;DHT22;658;48.820;9.354;2023-08-20T15:24:00;27.60;73.90
1329;DHT22;658;48.820;9.354;2023-08-20T15:28:01;27.50;73.90
1329;DHT22;658;48.820;9.354;2023-08-20T15:32:04;27.60;73.80
1329;DHT22;658;48.820;9.354;2023-08-20T15:36:05;27.60;73.90
1329;DHT22;658;48.820;9.354;2023-08-20T15:40:06;27.60;73.90
1329;DHT22;658;48.820;9.354;2023-08-20T15:44:12;27.60;73.80
1329;DHT22;658;48.820;9.354;2023-08-20T15:48:13;27.60;73.80
1329;DHT22;658;48.820;9.354;2023-08-20T15:52:13;27.60;73.70
1329;DHT22;658;48.820;9.354;2023-08-20T15:56:14;27.60;73.60
1329;DHT22;658;48.820;9.354;2023-08-20T16:00:15;27.60;73.50
1329;DHT22;658;48.820;9.354;2023-08-20T16:04:16;27.60;73.50
1329;DHT22;658;48.820;9.354;2023-08-20T16:08:17;27.60;74.00
1329;DHT22;658;48.820;9.354;2023-08-20T16:12:17;27.70;73.70
1329;DHT22;658;48.820;9.354;2023-08-20T16:16:18;27.70;73.70
1329;DHT22;658;48.820;9.354;2023-08-20T16:20:19;27.70;73.90
1329;DHT22;658;48.820;9.354;2023-08-20T16:24:19;27.80;73.70
1329;DHT22;658;48.820;9.354;2023-08-20T16:28:20;27.80;73.90
1329;DHT22;658;48.820;9.354;2023-08-20T16:32:20;27.90;73.00
1329;DHT22;658;48.820;9.354;2023-08-20T16:36:21;27.90;73.50
1329;DHT22;658;48.820;9.354;2023-08-20T16:40:22;27.90;72.50
1329;DHT22;658;48.820;9.354;2023-08-20T16:44:23;27.90;72.40
1329;DHT22;658;48.820;9.354;2023-08-20T16:48:23;28.00;72.60
1329;DHT22;658;48.820;9.354;2023-08-20T16:52:24;27.90;72.30
1329;DHT22;658;48.820;9.354;2023-08-20T16:56:25;28.00;72.40
1329;DHT22;658;48.820;9.354;2023-08-20T17:00:25;28.00;72.20
1329;DHT22;658;48.820;9.354;2023-08-20T17:04:26;28.00;72.00
1329;DHT22;658;48.820;9.354;2023-08-20T17:08:28;28.00;72.00
1329;DHT22;658;48.820;9.354;2023-08-20T17:12:29;27.90;71.90
1329;DHT22;658;48.820;9.354;2023-08-20T17:16:30;28.00;72.00
1329;DHT22;658;48.820;9.354;2023-08-20T17:20:30;27.90;72.10
1329;DHT22;658;48.820;9.354;2023-08-20T17:24:31;27.90;72.10
1329;DHT22;658;48.820;9.354;2023-08-20T17:28:32;27.90;71.90
1329;DHT22;658;48.820;9.354;2023-08-20T17:32:32;28.00;72.20
1329;DHT22;658;48.820;9.354;2023-08-20T17:36:33;28.00;71.90
1329;DHT22;658;48.820;9.354;2023-08-20T17:40:34;28.00;71.70
1329;DHT22;658;48.820;9.354;2023-08-20T17:44:34;28.00;71.40
1329;DHT22;658;48.820;9.354;2023-08-20T17:48:35;28.10;71.70
1329;DHT22;658;48.820;9.354;2023-08-20T17:52:35;28.00;71.30
1329;DHT22;658;48.820;9.354;2023-08-20T17:56:36;28.10;71.50
1329;DHT22;658;48.820;9.354;2023-08-20T18:00:37;28.10;71.60
1329;DHT22;658;48.820;9.354;2023-08-20T18:04:39;28.10;71.80
1329;DHT22;658;48.820;9.354;2023-08-20T18:08:40;28.10;71.30
1329;DHT22;658;48.820;9.354;2023-08-20T18:12:40;28.10;71.30
1329;DHT22;658;48.820;9.354;2023-08-20T18:16:41;28.10;71.30
1329;DHT22;658;48.820;9.354;2023-08-20T18:20:42;28.10;71.40
1329;DHT22;658;48.820;9.354;2023-08-20T18:24:42;28.10;71.40
1329;DHT22;658;48.820;9.354;2023-08-20T18:28:44;28.00;71.30
1329;DHT22;658;48.820;9.354;2023-08-20T18:32:47;28.00;71.40
1329;DHT22;658;48.820;9.354;2023-08-20T18:36:48;28.10;71.60
1329;DHT22;658;48.820;9.354;2023-08-20T18:40:52;28.10;71.80
1329;DHT22;658;48.820;9.354;2023-08-20T18:44:57;28.00;71.90
1329;DHT22;658;48.820;9.354;2023-08-20T18:48:58;28.00;71.80
1329;DHT22;658;48.820;9.354;2023-08-20T18:52:59;28.00;71.90
1329;DHT22;658;48.820;9.354;2023-08-20T18:57:02;28.00;71.80
1329;DHT22;658;48.820;9.354;2023-08-20T19:01:03;28.00;72.80
1329;DHT22;658;48.820;9.354;2023-08-20T19:05:05;28.10;75.20
1329;DHT22;658;48.820;9.354;2023-08-20T19:09:06;28.00;72.20
1329;DHT22;658;48.820;9.354;2023-08-20T19:13:08;28.00;71.80
1329;DHT22;658;48.820;9.354;2023-08-20T19:17:08;28.00;72.70
1329;DHT22;658;48.820;9.354;2023-08-20T19:21:09;28.00;72.40
1329;DHT22;658;48.820;9.354;2023-08-20T19:25:10;27.90;72.30
1329;DHT22;658;48.820;9.354;2023-08-20T19:29:13;27.90;72.50
1329;DHT22;658;48.820;9.354;2023-08-20T19:33:14;27.80;73.10
1329;DHT22;658;48.820;9.354;2023-08-20T19:37:14;27.80;73.40
1329;DHT22;658;48.820;9.354;2023-08-20T19:41:15;27.80;73.40
1329;DHT22;658;48.820;9.354;2023-08-20T19:45:16;27.80;73.80
1329;DHT22;658;48.820;9.354;2023-08-20T19:49:16;27.80;74.20
1329;DHT22;658;48.820;9.354;2023-08-20T19:53:17;27.90;73.60
1329;DHT22;658;48.820;9.354;2023-08-20T19:57:20;27.90;73.20
1329;DHT22;658;48.820;9.354;2023-08-20T20:01:21;27.80;74.10
1329;DHT22;658;48.820;9.354;2023-08-20T20:05:24;27.90;73.80
1329;DHT22;658;48.820;9.354;2023-08-20T20:09:31;27.90;72.70
1329;DHT22;658;48.820;9.354;2023-08-20T20:13:31;27.80;73.90
1329;DHT22;658;48.820;9.354;2023-08-20T20:17:33;27.80;73.80
1329;DHT22;658;48.820;9.354;2023-08-20T20:21:36;27.70;74.10
1329;DHT22;658;48.820;9.354;2023-08-20T20:25:36;27.80;73.50
1329;DHT22;658;48.820;9.354;2023-08-20T20:29:40;27.80;73.20
1329;DHT22;658;48.820;9.354;2023-08-20T20:33:41;27.80;73.70
1329;DHT22;658;48.820;9.354;2023-08-20T20:37:42;27.80;72.80
1329;DHT22;658;48.820;9.354;2023-08-20T20:41:46;27.70;73.30
1329;DHT22;658;48.820;9.354;2023-08-20T20:45:48;27.70;74.00
1329;DHT22;658;48.820;9.354;2023-08-20T20:49:51;27.70;74.00
1329;DHT22;658;48.820;9.354;2023-08-20T20:53:54;27.70;73.60
1329;DHT22;658;48.820;9.354;2023-08-20T20:57:55;27.70;73.40
1329;DHT22;658;48.820;9.354;2023-08-20T21:01:55;27.70;73.20
1329;DHT22;658;48.820;9.354;2023-08-20T21:05:57;27.70;72.90
1329;DHT22;658;48.820;9.354;2023-08-20T21:09:57;27.60;73.10
1329;DHT22;658;48.820;9.354;2023-08-20T21:14:01;27.60;72.60
1329;DHT22;658;48.820;9.354;2023-08-20T21:18:04;27.50;72.90
1329;DHT22;658;48.820;9.354;2023-08-20T21:22:12;27.50;73.40
1329;DHT22;658;48.820;9.354;2023-08-20T21:26:13;27.30;74.20
1329;DHT22;658;48.820;9.354;2023-08-20T21:30:14;27.20;74.80
1329;DHT22;658;48.820;9.354;2023-08-20T21:34:15;27.20;75.20
1329;DHT22;658;48.820;9.354;2023-08-20T21:38:18;27.10;75.60
1329;DHT22;658;48.820;9.354;2023-08-20T21:42:18;27.10;76.00
1329;DHT22;658;48.820;9.354;2023-08-20T21:46:19;27.10;76.10
1329;DHT22;658;48.820;9.354;2023-08-20T21:50:22;27.10;76.10
1329;DHT22;658;48.820;9.354;2023-08-20T21:54:25;27.10;76.00
1329;DHT22;658;48.820;9.354;2023-08-20T21:58:25;27.10;76.20
1329;DHT22;658;48.820;9.354;2023-08-20T22:02:26;27.00;76.60
1329;DHT22;658;48.820;9.354;2023-08-20T22:06:27;26.90;78.10
1329;DHT22;658;48.820;9.354;2023-08-20T22:10:27;26.80;78.20
1329;DHT22;658;48.820;9.354;2023-08-20T22:14:28;26.80;78.60
1329;DHT22;658;48.820;9.354;2023-08-20T22:18:29;26.80;78.80
1329;DHT22;658;48.820;9.354;2023-08-20T22:22:31;26.80;78.90
1329;DHT22;658;48.820;9.354;2023-08-20T22:26:32;26.80;78.80
1329;DHT22;658;48.820;9.354;2023-08-20T22:30:33;26.80;78.60
1329;DHT22;658;48.820;9.354;2023-08-20T22:34:35;26.80;78.40
1329;DHT22;658;48.820;9.354;2023-08-20T22:38:36;26.80;78.40
1329;DHT22;658;48.820;9.354;2023-08-20T22:42:37;26.80;78.50
1329;DHT22;658;48.820;9.354;2023-08-20T22:46:37;26.80;78.60
1329;DHT22;658;48.820;9.354;2023-08-20T22:50:38;26.70;78.80
1329;DHT22;658;48.820;9.354;2023-08-20T22:54:38;26.70;79.00
1329;DHT22;658;48.820;9.354;2023-08-20T22:58:41;26.80;79.00
1329;DHT22;658;48.820;9.354;2023-08-20T23:02:42;26.70;79.10
1329;DHT22;658;48.820;9.354;2023-08-20T23:06:42;26.70;79.80
1329;DHT22;658;48.820;9.354;2023-08-20T23:10:43;26.60;80.50
1329;DHT22;658;48.820;9.354;2023-08-20T23:14:44;26.50;80.80
1329;DHT22;658;48.820;9.354;2023-08-20T23:18:44;26.50;81.10
1329;DHT22;658;48.820;9.354;2023-08-20T23:22:46;26.50;81.40
1329;DHT22;658;48.820;9.354;2023-08-20T23:26:47;26.40;81.70
1329;DHT22;658;48.820;9.354;2023-08-20T23:30:47;26.40;82.00
1329;DHT22;658;48.820;9.354;2023-08-20T23:34:48;26.40;82.00
1329;DHT22;658;48.820;9.354;2023-08-20T23:38:48;26.40;81.70
1329;DHT22;658;48.820;9.354;2023-08-20T23:42:49;26.40;81.80
1329;DHT22;658;48.820;9.354;2023-08-20T23:46:50;26.30;82.00
1329;DHT22;658;48.820;9.354;2023-08-20T23:50:51;26.30;82.10
1329;DHT22;658;48.820;9.354;2023-08-20T23:54:51;26.20;82.30
1329;DHT22;658;48.820;9.354;2023-08-20T23:58:52;26.30;82.40
